sensor_id;sensor_type;location;lat;lon;timestamp;P1;durP1;ratioP1;P2;durP2;ratioP2
55728;SDS011;41633;39.720;2.910;2022-09-29T00:00:35;9.80;;;1.67;;
55728;SDS011;41633;39.720;2.910;2022-09-29T00:05:27;8.70;;;1.42;;
55728;SDS011;41633;39.720;2.910;2022-09-29T00:07:54;8.52;;;1.33;;
55728;SDS011;41633;39.720;2.910;2022-09-29T00:10:20;8.18;;;1.42;;
55728;SDS011;41633;39.720;2.910;2022-09-29T00:12:47;7.03;;;1.55;;
55728;SDS011;41633;39.720;2.910;2022-09-29T00:15:13;8.20;;;1.50;;
55728;SDS011;41633;39.720;2.910;2022-09-29T00:20:06;7.55;;;1.52;;
55728;SDS011;41633;39.720;2.910;2022-09-29T00:22:32;6.95;;;1.40;;
55728;SDS011;41633;39.720;2.910;2022-09-29T00:24:59;10.18;;;1.60;;
55728;SDS011;41633;39.720;2.910;2022-09-29T00:29:51;6.57;;;1.50;;
55728;SDS011;41633;39.720;2.910;2022-09-29T00:34:43;12.38;;;1.40;;
55728;SDS011;41633;39.720;2.910;2022-09-29T00:37:09;9.25;;;1.50;;
55728;SDS011;41633;39.720;2.910;2022-09-29T00:39:35;6.63;;;1.50;;
55728;SDS011;41633;39.720;2.910;2022-09-29T00:42:01;7.85;;;1.40;;
55728;SDS011;41633;39.720;2.910;2022-09-29T00:46:54;5.95;;;1.38;;
55728;SDS011;41633;39.720;2.910;2022-09-29T00:51:50;8.38;;;1.55;;
55728;SDS011;41633;39.720;2.910;2022-09-29T00:54:19;9.52;;;1.67;;
55728;SDS011;41633;39.720;2.910;2022-09-29T00:56:45;7.82;;;1.52;;
55728;SDS011;41633;39.720;2.910;2022-09-29T00:59:13;7.43;;;1.88;;
55728;SDS011;41633;39.720;2.910;2022-09-29T01:01:41;9.55;;;1.70;;
55728;SDS011;41633;39.720;2.910;2022-09-29T01:06:38;8.63;;;1.50;;
55728;SDS011;41633;39.720;2.910;2022-09-29T01:09:07;9.02;;;1.45;;
55728;SDS011;41633;39.720;2.910;2022-09-29T01:11:33;8.20;;;1.50;;
55728;SDS011;41633;39.720;2.910;2022-09-29T01:14:00;9.48;;;1.77;;
55728;SDS011;41633;39.720;2.910;2022-09-29T01:16:29;8.80;;;1.67;;
55728;SDS011;41633;39.720;2.910;2022-09-29T01:18:56;8.00;;;1.80;;
55728;SDS011;41633;39.720;2.910;2022-09-29T01:44:25;7.88;;;2.00;;
55728;SDS011;41633;39.720;2.910;2022-09-29T01:46:53;10.32;;;1.90;;
55728;SDS011;41633;39.720;2.910;2022-09-29T01:49:21;9.95;;;1.88;;
55728;SDS011;41633;39.720;2.910;2022-09-29T01:56:45;10.77;;;1.75;;
55728;SDS011;41633;39.720;2.910;2022-09-29T02:01:59;8.05;;;1.75;;
55728;SDS011;41633;39.720;2.910;2022-09-29T02:04:31;9.52;;;1.50;;
55728;SDS011;41633;39.720;2.910;2022-09-29T02:07:01;8.15;;;1.55;;
55728;SDS011;41633;39.720;2.910;2022-09-29T02:09:30;6.68;;;1.30;;
55728;SDS011;41633;39.720;2.910;2022-09-29T02:11:59;8.48;;;1.90;;
55728;SDS011;41633;39.720;2.910;2022-09-29T02:14:30;10.23;;;1.52;;
55728;SDS011;41633;39.720;2.910;2022-09-29T02:16:59;10.30;;;2.05;;
55728;SDS011;41633;39.720;2.910;2022-09-29T02:19:28;8.55;;;2.00;;
55728;SDS011;41633;39.720;2.910;2022-09-29T02:21:55;8.52;;;1.50;;
55728;SDS011;41633;39.720;2.910;2022-09-29T02:24:22;10.00;;;1.80;;
55728;SDS011;41633;39.720;2.910;2022-09-29T02:26:49;8.95;;;1.90;;
55728;SDS011;41633;39.720;2.910;2022-09-29T02:29:15;8.52;;;1.70;;
55728;SDS011;41633;39.720;2.910;2022-09-29T02:31:41;14.45;;;2.05;;
55728;SDS011;41633;39.720;2.910;2022-09-29T02:34:09;9.25;;;1.60;;
55728;SDS011;41633;39.720;2.910;2022-09-29T02:50:18;9.98;;;1.90;;
55728;SDS011;41633;39.720;2.910;2022-09-29T02:55:32;9.68;;;1.73;;
55728;SDS011;41633;39.720;2.910;2022-09-29T02:58:00;8.90;;;1.83;;
55728;SDS011;41633;39.720;2.910;2022-09-29T03:00:28;8.23;;;1.55;;
55728;SDS011;41633;39.720;2.910;2022-09-29T03:02:54;9.07;;;2.00;;
55728;SDS011;41633;39.720;2.910;2022-09-29T03:05:21;9.73;;;1.88;;
55728;SDS011;41633;39.720;2.910;2022-09-29T03:07:47;9.80;;;1.90;;
55728;SDS011;41633;39.720;2.910;2022-09-29T03:10:14;10.98;;;2.00;;
55728;SDS011;41633;39.720;2.910;2022-09-29T03:12:40;10.00;;;2.00;;
55728;SDS011;41633;39.720;2.910;2022-09-29T03:15:07;8.10;;;1.63;;
55728;SDS011;41633;39.720;2.910;2022-09-29T03:17:35;9.27;;;2.08;;
55728;SDS011;41633;39.720;2.910;2022-09-29T03:22:27;10.82;;;2.40;;
55728;SDS011;41633;39.720;2.910;2022-09-29T03:24:53;8.93;;;1.88;;
55728;SDS011;41633;39.720;2.910;2022-09-29T03:27:19;12.07;;;2.05;;
55728;SDS011;41633;39.720;2.910;2022-09-29T03:32:12;7.93;;;1.90;;
55728;SDS011;41633;39.720;2.910;2022-09-29T03:37:04;8.15;;;1.90;;
55728;SDS011;41633;39.720;2.910;2022-09-29T03:41:56;10.13;;;1.92;;
55728;SDS011;41633;39.720;2.910;2022-09-29T03:44:22;9.85;;;1.90;;
55728;SDS011;41633;39.720;2.910;2022-09-29T03:49:14;10.65;;;2.08;;
55728;SDS011;41633;39.720;2.910;2022-09-29T03:54:06;8.35;;;1.67;;
55728;SDS011;41633;39.720;2.910;2022-09-29T03:58:58;8.13;;;2.00;;
55728;SDS011;41633;39.720;2.910;2022-09-29T04:01:24;11.52;;;2.25;;
55728;SDS011;41633;39.720;2.910;2022-09-29T04:03:50;9.50;;;2.13;;
55728;SDS011;41633;39.720;2.910;2022-09-29T04:06:16;9.40;;;2.25;;
55728;SDS011;41633;39.720;2.910;2022-09-29T04:11:08;11.18;;;1.98;;
55728;SDS011;41633;39.720;2.910;2022-09-29T04:16:02;7.68;;;1.63;;
55728;SDS011;41633;39.720;2.910;2022-09-29T04:18:29;8.18;;;1.85;;
55728;SDS011;41633;39.720;2.910;2022-09-29T04:20:56;8.20;;;1.80;;
55728;SDS011;41633;39.720;2.910;2022-09-29T04:23:25;12.55;;;2.10;;
55728;SDS011;41633;39.720;2.910;2022-09-29T04:25:51;10.88;;;2.22;;
55728;SDS011;41633;39.720;2.910;2022-09-29T04:28:17;8.20;;;1.70;;
55728;SDS011;41633;39.720;2.910;2022-09-29T04:30:43;9.30;;;2.08;;
55728;SDS011;41633;39.720;2.910;2022-09-29T04:35:35;8.13;;;1.80;;
55728;SDS011;41633;39.720;2.910;2022-09-29T04:40:27;10.27;;;1.52;;
55728;SDS011;41633;39.720;2.910;2022-09-29T04:45:19;7.57;;;1.63;;
55728;SDS011;41633;39.720;2.910;2022-09-29T04:50:11;7.00;;;1.30;;
55728;SDS011;41633;39.720;2.910;2022-09-29T04:55:03;3.75;;;0.75;;
55728;SDS011;41633;39.720;2.910;2022-09-29T04:57:30;4.45;;;0.73;;
55728;SDS011;41633;39.720;2.910;2022-09-29T04:59:56;5.43;;;0.80;;
55728;SDS011;41633;39.720;2.910;2022-09-29T05:04:48;6.15;;;1.05;;
55728;SDS011;41633;39.720;2.910;2022-09-29T05:07:16;3.03;;;0.80;;
55728;SDS011;41633;39.720;2.910;2022-09-29T05:09:42;5.30;;;0.73;;
55728;SDS011;41633;39.720;2.910;2022-09-29T05:12:08;3.08;;;0.80;;
55728;SDS011;41633;39.720;2.910;2022-09-29T05:14:34;8.60;;;1.52;;
55728;SDS011;41633;39.720;2.910;2022-09-29T05:19:27;6.07;;;1.40;;
55728;SDS011;41633;39.720;2.910;2022-09-29T05:21:54;6.72;;;1.40;;
55728;SDS011;41633;39.720;2.910;2022-09-29T05:24:20;6.93;;;1.30;;
55728;SDS011;41633;39.720;2.910;2022-09-29T05:29:12;8.10;;;1.65;;
55728;SDS011;41633;39.720;2.910;2022-09-29T05:34:04;6.22;;;1.30;;
55728;SDS011;41633;39.720;2.910;2022-09-29T05:36:30;5.93;;;1.27;;
55728;SDS011;41633;39.720;2.910;2022-09-29T05:41:22;9.02;;;1.17;;
55728;SDS011;41633;39.720;2.910;2022-09-29T05:46:15;6.35;;;1.30;;
55728;SDS011;41633;39.720;2.910;2022-09-29T05:48:46;6.35;;;1.00;;
55728;SDS011;41633;39.720;2.910;2022-09-29T05:51:13;6.18;;;0.98;;
55728;SDS011;41633;39.720;2.910;2022-09-29T05:53:40;9.82;;;1.17;;
55728;SDS011;41633;39.720;2.910;2022-09-29T05:56:06;6.03;;;1.10;;
55728;SDS011;41633;39.720;2.910;2022-09-29T05:58:33;7.40;;;1.30;;
55728;SDS011;41633;39.720;2.910;2022-09-29T06:01:03;4.40;;;0.90;;
55728;SDS011;41633;39.720;2.910;2022-09-29T06:03:31;6.03;;;0.98;;
55728;SDS011;41633;39.720;2.910;2022-09-29T06:05:57;4.97;;;1.17;;
55728;SDS011;41633;39.720;2.910;2022-09-29T06:08:23;4.55;;;1.10;;
55728;SDS011;41633;39.720;2.910;2022-09-29T06:13:15;9.38;;;1.90;;
55728;SDS011;41633;39.720;2.910;2022-09-29T06:18:07;10.60;;;1.83;;
55728;SDS011;41633;39.720;2.910;2022-09-29T06:20:33;12.82;;;2.25;;
55728;SDS011;41633;39.720;2.910;2022-09-29T06:23:02;13.20;;;3.15;;
55728;SDS011;41633;39.720;2.910;2022-09-29T06:27:54;15.15;;;3.80;;
55728;SDS011;41633;39.720;2.910;2022-09-29T06:32:46;22.40;;;6.93;;
55728;SDS011;41633;39.720;2.910;2022-09-29T06:37:57;16.80;;;4.72;;
55728;SDS011;41633;39.720;2.910;2022-09-29T06:42:51;20.38;;;6.75;;
55728;SDS011;41633;39.720;2.910;2022-09-29T06:45:17;19.40;;;7.13;;
55728;SDS011;41633;39.720;2.910;2022-09-29T06:47:43;18.85;;;4.68;;
55728;SDS011;41633;39.720;2.910;2022-09-29T06:50:10;13.93;;;3.50;;
55728;SDS011;41633;39.720;2.910;2022-09-29T06:55:02;12.15;;;2.72;;
55728;SDS011;41633;39.720;2.910;2022-09-29T06:57:28;10.60;;;2.40;;
55728;SDS011;41633;39.720;2.910;2022-09-29T07:02:20;13.15;;;2.35;;
55728;SDS011;41633;39.720;2.910;2022-09-29T07:07:13;8.93;;;1.90;;
55728;SDS011;41633;39.720;2.910;2022-09-29T07:09:39;10.80;;;2.30;;
55728;SDS011;41633;39.720;2.910;2022-09-29T07:12:06;11.88;;;2.20;;
55728;SDS011;41633;39.720;2.910;2022-09-29T07:14:32;4.32;;;0.93;;
55728;SDS011;41633;39.720;2.910;2022-09-29T07:19:25;10.03;;;1.50;;
55728;SDS011;41633;39.720;2.910;2022-09-29T07:21:53;7.43;;;1.60;;
55728;SDS011;41633;39.720;2.910;2022-09-29T07:24:19;6.22;;;1.42;;
55728;SDS011;41633;39.720;2.910;2022-09-29T07:29:11;6.57;;;1.30;;
55728;SDS011;41633;39.720;2.910;2022-09-29T07:31:37;4.20;;;1.00;;
55728;SDS011;41633;39.720;2.910;2022-09-29T07:34:04;7.10;;;1.00;;
55728;SDS011;41633;39.720;2.910;2022-09-29T07:38:57;18.00;;;2.25;;
55728;SDS011;41633;39.720;2.910;2022-09-29T07:41:23;9.90;;;1.50;;
55728;SDS011;41633;39.720;2.910;2022-09-29T07:43:49;8.73;;;1.23;;
55728;SDS011;41633;39.720;2.910;2022-09-29T07:46:15;7.82;;;1.00;;
55728;SDS011;41633;39.720;2.910;2022-09-29T07:48:42;5.10;;;0.93;;
55728;SDS011;41633;39.720;2.910;2022-09-29T07:51:15;7.40;;;1.38;;
55728;SDS011;41633;39.720;2.910;2022-09-29T07:53:42;8.20;;;1.58;;
55728;SDS011;41633;39.720;2.910;2022-09-29T07:56:09;6.82;;;1.17;;
55728;SDS011;41633;39.720;2.910;2022-09-29T07:58:36;6.20;;;0.90;;
55728;SDS011;41633;39.720;2.910;2022-09-29T08:01:03;10.18;;;1.30;;
55728;SDS011;41633;39.720;2.910;2022-09-29T08:03:30;7.97;;;1.10;;
55728;SDS011;41633;39.720;2.910;2022-09-29T08:05:56;5.85;;;0.80;;
55728;SDS011;41633;39.720;2.910;2022-09-29T08:08:23;4.57;;;0.90;;
55728;SDS011;41633;39.720;2.910;2022-09-29T08:10:49;6.55;;;0.80;;
55728;SDS011;41633;39.720;2.910;2022-09-29T08:13:16;5.25;;;1.00;;
55728;SDS011;41633;39.720;2.910;2022-09-29T08:15:42;6.45;;;1.15;;
55728;SDS011;41633;39.720;2.910;2022-09-29T08:18:09;3.95;;;0.80;;
55728;SDS011;41633;39.720;2.910;2022-09-29T08:20:35;4.72;;;1.00;;
55728;SDS011;41633;39.720;2.910;2022-09-29T08:23:01;7.78;;;1.05;;
55728;SDS011;41633;39.720;2.910;2022-09-29T08:25:27;6.88;;;1.25;;
55728;SDS011;41633;39.720;2.910;2022-09-29T08:27:53;3.80;;;0.82;;
55728;SDS011;41633;39.720;2.910;2022-09-29T08:30:20;5.13;;;1.00;;
55728;SDS011;41633;39.720;2.910;2022-09-29T08:32:55;4.75;;;1.00;;
55728;SDS011;41633;39.720;2.910;2022-09-29T08:35:21;7.88;;;0.80;;
55728;SDS011;41633;39.720;2.910;2022-09-29T08:37:47;8.57;;;1.23;;
55728;SDS011;41633;39.720;2.910;2022-09-29T08:40:13;10.35;;;1.30;;
55728;SDS011;41633;39.720;2.910;2022-09-29T08:42:59;8.25;;;1.13;;
55728;SDS011;41633;39.720;2.910;2022-09-29T08:45:27;6.82;;;1.00;;
55728;SDS011;41633;39.720;2.910;2022-09-29T08:47:57;6.05;;;0.88;;
55728;SDS011;41633;39.720;2.910;2022-09-29T08:52:55;9.15;;;1.70;;
55728;SDS011;41633;39.720;2.910;2022-09-29T08:57:57;10.85;;;2.47;;
55728;SDS011;41633;39.720;2.910;2022-09-29T09:00:38;7.57;;;1.10;;
55728;SDS011;41633;39.720;2.910;2022-09-29T09:21:31;5.43;;;1.10;;
55728;SDS011;41633;39.720;2.910;2022-09-29T09:24:07;12.25;;;1.58;;
55728;SDS011;41633;39.720;2.910;2022-09-29T09:26:43;5.32;;;1.10;;
55728;SDS011;41633;39.720;2.910;2022-09-29T09:29:17;5.43;;;0.93;;
55728;SDS011;41633;39.720;2.910;2022-09-29T09:31:48;6.38;;;0.90;;
55728;SDS011;41633;39.720;2.910;2022-09-29T09:34:26;7.47;;;1.20;;
55728;SDS011;41633;39.720;2.910;2022-09-29T09:39:28;4.50;;;0.90;;
55728;SDS011;41633;39.720;2.910;2022-09-29T09:41:55;5.35;;;0.90;;
55728;SDS011;41633;39.720;2.910;2022-09-29T09:44:32;4.43;;;0.80;;
55728;SDS011;41633;39.720;2.910;2022-09-29T09:49:44;5.85;;;0.80;;
55728;SDS011;41633;39.720;2.910;2022-09-29T09:52:13;4.43;;;0.98;;
55728;SDS011;41633;39.720;2.910;2022-09-29T09:54:45;11.32;;;1.20;;
55728;SDS011;41633;39.720;2.910;2022-09-29T09:57:18;4.40;;;0.80;;
55728;SDS011;41633;39.720;2.910;2022-09-29T10:02:22;5.78;;;0.95;;
55728;SDS011;41633;39.720;2.910;2022-09-29T10:04:51;7.53;;;1.00;;
55728;SDS011;41633;39.720;2.910;2022-09-29T10:07:18;7.00;;;0.90;;
55728;SDS011;41633;39.720;2.910;2022-09-29T10:09:45;8.20;;;1.20;;
55728;SDS011;41633;39.720;2.910;2022-09-29T10:12:19;6.72;;;1.00;;
55728;SDS011;41633;39.720;2.910;2022-09-29T10:14:52;3.97;;;0.77;;
55728;SDS011;41633;39.720;2.910;2022-09-29T10:17:20;4.53;;;0.70;;
55728;SDS011;41633;39.720;2.910;2022-09-29T10:19:53;5.10;;;0.85;;
55728;SDS011;41633;39.720;2.910;2022-09-29T10:22:20;7.15;;;1.20;;
55728;SDS011;41633;39.720;2.910;2022-09-29T10:24:46;4.68;;;0.90;;
55728;SDS011;41633;39.720;2.910;2022-09-29T10:27:19;3.60;;;0.60;;
55728;SDS011;41633;39.720;2.910;2022-09-29T10:29:46;4.45;;;0.73;;
55728;SDS011;41633;39.720;2.910;2022-09-29T10:34:46;3.55;;;0.82;;
55728;SDS011;41633;39.720;2.910;2022-09-29T10:37:23;3.80;;;0.60;;
55728;SDS011;41633;39.720;2.910;2022-09-29T10:42:48;3.60;;;0.65;;
55728;SDS011;41633;39.720;2.910;2022-09-29T10:45:16;3.67;;;0.68;;
55728;SDS011;41633;39.720;2.910;2022-09-29T10:52:41;3.97;;;0.80;;
55728;SDS011;41633;39.720;2.910;2022-09-29T10:55:13;3.92;;;0.45;;
55728;SDS011;41633;39.720;2.910;2022-09-29T10:57:41;4.07;;;0.82;;
55728;SDS011;41633;39.720;2.910;2022-09-29T11:00:22;4.40;;;0.77;;
55728;SDS011;41633;39.720;2.910;2022-09-29T11:02:50;3.75;;;0.60;;
55728;SDS011;41633;39.720;2.910;2022-09-29T11:05:21;5.85;;;0.98;;
55728;SDS011;41633;39.720;2.910;2022-09-29T11:07:48;4.72;;;0.63;;
55728;SDS011;41633;39.720;2.910;2022-09-29T11:12:53;4.35;;;0.55;;
55728;SDS011;41633;39.720;2.910;2022-09-29T11:15:27;6.57;;;1.08;;
55728;SDS011;41633;39.720;2.910;2022-09-29T11:17:53;4.47;;;0.77;;
55728;SDS011;41633;39.720;2.910;2022-09-29T11:20:20;6.72;;;1.10;;
55728;SDS011;41633;39.720;2.910;2022-09-29T11:30:44;4.35;;;0.60;;
55728;SDS011;41633;39.720;2.910;2022-09-29T11:33:16;5.95;;;0.82;;
55728;SDS011;41633;39.720;2.910;2022-09-29T12:00:13;6.72;;;1.00;;
55728;SDS011;41633;39.720;2.910;2022-09-29T12:12:47;5.93;;;0.95;;
55728;SDS011;41633;39.720;2.910;2022-09-29T12:17:52;3.22;;;0.70;;
55728;SDS011;41633;39.720;2.910;2022-09-29T12:22:50;3.65;;;0.80;;
55728;SDS011;41633;39.720;2.910;2022-09-29T12:25:19;6.13;;;0.82;;
55728;SDS011;41633;39.720;2.910;2022-09-29T12:27:48;7.40;;;1.10;;
55728;SDS011;41633;39.720;2.910;2022-09-29T12:32:43;5.38;;;0.90;;
55728;SDS011;41633;39.720;2.910;2022-09-29T12:38:01;6.30;;;1.10;;
55728;SDS011;41633;39.720;2.910;2022-09-29T12:40:32;3.60;;;0.90;;
55728;SDS011;41633;39.720;2.910;2022-09-29T12:43:02;6.43;;;1.20;;
55728;SDS011;41633;39.720;2.910;2022-09-29T12:50:50;4.57;;;1.10;;
55728;SDS011;41633;39.720;2.910;2022-09-29T12:54:02;8.00;;;1.20;;
55728;SDS011;41633;39.720;2.910;2022-09-29T12:56:13;2.63;;;0.60;;
55728;SDS011;41633;39.720;2.910;2022-09-29T12:58:52;4.13;;;0.90;;
55728;SDS011;41633;39.720;2.910;2022-09-29T13:08:48;6.75;;;1.00;;
55728;SDS011;41633;39.720;2.910;2022-09-29T13:11:25;6.18;;;1.10;;
55728;SDS011;41633;39.720;2.910;2022-09-29T13:30:05;11.18;;;1.50;;
55728;SDS011;41633;39.720;2.910;2022-09-29T13:32:38;6.82;;;1.17;;
55728;SDS011;41633;39.720;2.910;2022-09-29T13:35:09;7.70;;;0.98;;
55728;SDS011;41633;39.720;2.910;2022-09-29T13:38:10;4.75;;;0.90;;
55728;SDS011;41633;39.720;2.910;2022-09-29T13:40:29;6.00;;;0.90;;
55728;SDS011;41633;39.720;2.910;2022-09-29T13:42:56;4.55;;;0.82;;
55728;SDS011;41633;39.720;2.910;2022-09-29T13:47:53;3.53;;;0.80;;
55728;SDS011;41633;39.720;2.910;2022-09-29T13:56:07;4.07;;;0.75;;
55728;SDS011;41633;39.720;2.910;2022-09-29T14:01:20;4.10;;;0.85;;
55728;SDS011;41633;39.720;2.910;2022-09-29T14:03:54;5.15;;;0.85;;
55728;SDS011;41633;39.720;2.910;2022-09-29T14:06:24;5.25;;;0.70;;
55728;SDS011;41633;39.720;2.910;2022-09-29T14:09:02;6.03;;;1.00;;
55728;SDS011;41633;39.720;2.910;2022-09-29T14:11:33;4.32;;;0.65;;
55728;SDS011;41633;39.720;2.910;2022-09-29T14:14:02;3.25;;;0.70;;
55728;SDS011;41633;39.720;2.910;2022-09-29T14:19:01;3.50;;;0.73;;
55728;SDS011;41633;39.720;2.910;2022-09-29T14:21:44;4.75;;;0.90;;
55728;SDS011;41633;39.720;2.910;2022-09-29T14:27:13;6.53;;;1.13;;
55728;SDS011;41633;39.720;2.910;2022-09-29T14:29:54;7.13;;;1.08;;
55728;SDS011;41633;39.720;2.910;2022-09-29T14:32:22;4.10;;;1.02;;
55728;SDS011;41633;39.720;2.910;2022-09-29T14:34:49;6.95;;;1.40;;
55728;SDS011;41633;39.720;2.910;2022-09-29T14:37:18;5.75;;;0.90;;
55728;SDS011;41633;39.720;2.910;2022-09-29T14:39:46;6.22;;;1.50;;
55728;SDS011;41633;39.720;2.910;2022-09-29T14:42:32;4.15;;;0.90;;
55728;SDS011;41633;39.720;2.910;2022-09-29T14:44:59;9.07;;;1.60;;
55728;SDS011;41633;39.720;2.910;2022-09-29T15:01:31;5.18;;;1.10;;
55728;SDS011;41633;39.720;2.910;2022-09-29T15:04:10;3.30;;;0.80;;
55728;SDS011;41633;39.720;2.910;2022-09-29T15:06:50;4.55;;;0.90;;
55728;SDS011;41633;39.720;2.910;2022-09-29T15:09:17;6.13;;;1.50;;
55728;SDS011;41633;39.720;2.910;2022-09-29T15:11:54;5.75;;;1.50;;
55728;SDS011;41633;39.720;2.910;2022-09-29T15:14:27;7.38;;;1.30;;
55728;SDS011;41633;39.720;2.910;2022-09-29T15:19:50;4.77;;;1.37;;
55728;SDS011;41633;39.720;2.910;2022-09-29T15:25:11;3.95;;;1.25;;
55728;SDS011;41633;39.720;2.910;2022-09-29T15:27:49;5.03;;;1.48;;
55728;SDS011;41633;39.720;2.910;2022-09-29T15:30:17;8.13;;;1.80;;
55728;SDS011;41633;39.720;2.910;2022-09-29T15:32:46;6.75;;;1.30;;
55728;SDS011;41633;39.720;2.910;2022-09-29T15:35:14;5.93;;;1.40;;
55728;SDS011;41633;39.720;2.910;2022-09-29T15:40:11;6.22;;;1.23;;
55728;SDS011;41633;39.720;2.910;2022-09-29T15:42:39;5.60;;;0.95;;
55728;SDS011;41633;39.720;2.910;2022-09-29T15:45:20;6.00;;;1.40;;
55728;SDS011;41633;39.720;2.910;2022-09-29T15:47:47;2.95;;;0.82;;
55728;SDS011;41633;39.720;2.910;2022-09-29T15:50:20;6.63;;;0.93;;
55728;SDS011;41633;39.720;2.910;2022-09-29T15:52:47;6.57;;;1.73;;
55728;SDS011;41633;39.720;2.910;2022-09-29T15:55:15;6.43;;;1.10;;
55728;SDS011;41633;39.720;2.910;2022-09-29T15:57:42;6.72;;;1.48;;
55728;SDS011;41633;39.720;2.910;2022-09-29T16:02:51;6.05;;;1.23;;
55728;SDS011;41633;39.720;2.910;2022-09-29T16:05:21;6.13;;;1.35;;
55728;SDS011;41633;39.720;2.910;2022-09-29T16:07:54;4.43;;;1.00;;
55728;SDS011;41633;39.720;2.910;2022-09-29T16:10:26;5.55;;;1.33;;
55728;SDS011;41633;39.720;2.910;2022-09-29T16:12:56;5.90;;;1.20;;
55728;SDS011;41633;39.720;2.910;2022-09-29T16:15:30;7.65;;;1.20;;
55728;SDS011;41633;39.720;2.910;2022-09-29T16:17:58;6.50;;;1.10;;
55728;SDS011;41633;39.720;2.910;2022-09-29T16:20:29;6.07;;;1.30;;
55728;SDS011;41633;39.720;2.910;2022-09-29T16:28:59;5.22;;;1.33;;
55728;SDS011;41633;39.720;2.910;2022-09-29T16:31:27;4.53;;;0.82;;
55728;SDS011;41633;39.720;2.910;2022-09-29T16:33:57;4.38;;;0.90;;
55728;SDS011;41633;39.720;2.910;2022-09-29T16:36:32;4.68;;;0.90;;
55728;SDS011;41633;39.720;2.910;2022-09-29T16:39:03;4.55;;;1.00;;
55728;SDS011;41633;39.720;2.910;2022-09-29T16:41:35;5.35;;;1.00;;
55728;SDS011;41633;39.720;2.910;2022-09-29T16:46:31;6.05;;;1.00;;
55728;SDS011;41633;39.720;2.910;2022-09-29T16:49:01;5.40;;;1.20;;
55728;SDS011;41633;39.720;2.910;2022-09-29T16:51:29;5.25;;;1.10;;
55728;SDS011;41633;39.720;2.910;2022-09-29T16:53:56;7.30;;;1.13;;
55728;SDS011;41633;39.720;2.910;2022-09-29T16:56:26;5.05;;;1.00;;
55728;SDS011;41633;39.720;2.910;2022-09-29T16:59:01;3.80;;;0.80;;
55728;SDS011;41633;39.720;2.910;2022-09-29T17:01:28;4.20;;;0.95;;
55728;SDS011;41633;39.720;2.910;2022-09-29T17:03:54;6.28;;;1.23;;
55728;SDS011;41633;39.720;2.910;2022-09-29T17:06:21;4.35;;;1.05;;
55728;SDS011;41633;39.720;2.910;2022-09-29T17:08:47;6.10;;;1.10;;
55728;SDS011;41633;39.720;2.910;2022-09-29T17:11:13;4.93;;;0.85;;
55728;SDS011;41633;39.720;2.910;2022-09-29T17:13:40;5.80;;;1.15;;
55728;SDS011;41633;39.720;2.910;2022-09-29T17:16:06;4.95;;;1.00;;
55728;SDS011;41633;39.720;2.910;2022-09-29T17:18:35;8.60;;;1.20;;
55728;SDS011;41633;39.720;2.910;2022-09-29T17:21:01;5.53;;;1.30;;
55728;SDS011;41633;39.720;2.910;2022-09-29T17:23:27;7.32;;;1.23;;
55728;SDS011;41633;39.720;2.910;2022-09-29T17:25:54;5.13;;;1.10;;
55728;SDS011;41633;39.720;2.910;2022-09-29T17:28:40;5.60;;;1.15;;
55728;SDS011;41633;39.720;2.910;2022-09-29T17:31:07;6.68;;;1.30;;
55728;SDS011;41633;39.720;2.910;2022-09-29T17:33:34;3.70;;;0.90;;
55728;SDS011;41633;39.720;2.910;2022-09-29T17:36:02;7.88;;;1.20;;
55728;SDS011;41633;39.720;2.910;2022-09-29T17:38:28;7.28;;;1.20;;
55728;SDS011;41633;39.720;2.910;2022-09-29T17:40:57;7.80;;;1.63;;
55728;SDS011;41633;39.720;2.910;2022-09-29T17:43:26;13.20;;;2.42;;
55728;SDS011;41633;39.720;2.910;2022-09-29T17:45:55;5.57;;;1.70;;
55728;SDS011;41633;39.720;2.910;2022-09-29T17:48:23;7.40;;;1.73;;
55728;SDS011;41633;39.720;2.910;2022-09-29T17:50:49;6.72;;;1.80;;
55728;SDS011;41633;39.720;2.910;2022-09-29T17:53:19;7.50;;;1.80;;
55728;SDS011;41633;39.720;2.910;2022-09-29T17:55:46;8.13;;;2.30;;
55728;SDS011;41633;39.720;2.910;2022-09-29T17:58:16;9.30;;;2.67;;
55728;SDS011;41633;39.720;2.910;2022-09-29T18:00:43;7.50;;;2.25;;
55728;SDS011;41633;39.720;2.910;2022-09-29T18:03:13;7.10;;;2.08;;
55728;SDS011;41633;39.720;2.910;2022-09-29T18:05:40;8.95;;;2.50;;
55728;SDS011;41633;39.720;2.910;2022-09-29T18:08:09;7.20;;;2.25;;
55728;SDS011;41633;39.720;2.910;2022-09-29T18:10:41;10.13;;;2.00;;
55728;SDS011;41633;39.720;2.910;2022-09-29T18:13:08;7.88;;;1.90;;
55728;SDS011;41633;39.720;2.910;2022-09-29T18:15:34;7.03;;;1.95;;
55728;SDS011;41633;39.720;2.910;2022-09-29T18:18:03;8.95;;;2.10;;
55728;SDS011;41633;39.720;2.910;2022-09-29T18:20:30;9.43;;;1.88;;
55728;SDS011;41633;39.720;2.910;2022-09-29T18:22:57;10.55;;;1.60;;
55728;SDS011;41633;39.720;2.910;2022-09-29T18:25:25;7.88;;;1.63;;
55728;SDS011;41633;39.720;2.910;2022-09-29T18:27:51;7.55;;;1.80;;
55728;SDS011;41633;39.720;2.910;2022-09-29T18:30:22;7.32;;;1.85;;
55728;SDS011;41633;39.720;2.910;2022-09-29T18:32:49;8.05;;;1.27;;
55728;SDS011;41633;39.720;2.910;2022-09-29T18:35:18;7.55;;;1.52;;
55728;SDS011;41633;39.720;2.910;2022-09-29T18:37:44;7.10;;;1.45;;
55728;SDS011;41633;39.720;2.910;2022-09-29T18:40:11;6.32;;;1.40;;
55728;SDS011;41633;39.720;2.910;2022-09-29T18:42:44;4.55;;;1.25;;
55728;SDS011;41633;39.720;2.910;2022-09-29T18:45:18;4.30;;;1.00;;
55728;SDS011;41633;39.720;2.910;2022-09-29T18:50:14;4.25;;;1.17;;
55728;SDS011;41633;39.720;2.910;2022-09-29T18:52:40;6.72;;;1.50;;
55728;SDS011;41633;39.720;2.910;2022-09-29T18:55:06;5.28;;;1.50;;
55728;SDS011;41633;39.720;2.910;2022-09-29T18:57:33;6.00;;;1.48;;
55728;SDS011;41633;39.720;2.910;2022-09-29T18:59:59;6.35;;;1.55;;
55728;SDS011;41633;39.720;2.910;2022-09-29T19:02:27;5.85;;;1.17;;
55728;SDS011;41633;39.720;2.910;2022-09-29T19:07:19;6.47;;;1.80;;
55728;SDS011;41633;39.720;2.910;2022-09-29T19:09:45;11.45;;;1.60;;
55728;SDS011;41633;39.720;2.910;2022-09-29T19:12:11;7.57;;;1.77;;
55728;SDS011;41633;39.720;2.910;2022-09-29T19:14:37;6.70;;;1.88;;
55728;SDS011;41633;39.720;2.910;2022-09-29T19:17:06;8.85;;;2.40;;
55728;SDS011;41633;39.720;2.910;2022-09-29T19:19:33;9.13;;;3.05;;
55728;SDS011;41633;39.720;2.910;2022-09-29T19:21:59;6.65;;;2.13;;
55728;SDS011;41633;39.720;2.910;2022-09-29T19:24:25;6.68;;;2.13;;
55728;SDS011;41633;39.720;2.910;2022-09-29T19:26:51;8.65;;;2.60;;
55728;SDS011;41633;39.720;2.910;2022-09-29T19:29:17;9.95;;;2.95;;
55728;SDS011;41633;39.720;2.910;2022-09-29T19:31:44;7.15;;;1.73;;
55728;SDS011;41633;39.720;2.910;2022-09-29T19:34:10;6.07;;;1.58;;
55728;SDS011;41633;39.720;2.910;2022-09-29T19:36:36;8.75;;;2.80;;
55728;SDS011;41633;39.720;2.910;2022-09-29T19:39:03;10.55;;;2.10;;
55728;SDS011;41633;39.720;2.910;2022-09-29T19:41:29;6.35;;;1.52;;
55728;SDS011;41633;39.720;2.910;2022-09-29T19:46:22;7.47;;;2.10;;
55728;SDS011;41633;39.720;2.910;2022-09-29T19:48:48;7.85;;;1.88;;
55728;SDS011;41633;39.720;2.910;2022-09-29T19:51:14;7.35;;;1.80;;
55728;SDS011;41633;39.720;2.910;2022-09-29T19:54:00;9.73;;;1.80;;
55728;SDS011;41633;39.720;2.910;2022-09-29T19:56:39;7.90;;;2.25;;
55728;SDS011;41633;39.720;2.910;2022-09-29T19:59:06;8.43;;;2.05;;
55728;SDS011;41633;39.720;2.910;2022-09-29T20:01:33;7.00;;;2.00;;
55728;SDS011;41633;39.720;2.910;2022-09-29T20:06:26;30.13;;;20.25;;
55728;SDS011;41633;39.720;2.910;2022-09-29T20:08:52;22.75;;;14.63;;
55728;SDS011;41633;39.720;2.910;2022-09-29T20:11:18;22.73;;;13.88;;
55728;SDS011;41633;39.720;2.910;2022-09-29T20:16:10;8.73;;;2.95;;
55728;SDS011;41633;39.720;2.910;2022-09-29T20:21:09;14.50;;;2.60;;
55728;SDS011;41633;39.720;2.910;2022-09-29T20:23:39;8.00;;;1.45;;
55728;SDS011;41633;39.720;2.910;2022-09-29T20:26:05;7.10;;;1.50;;